createdAt,value
2019-01-21T00:01:41.977Z,100590.55
2019-01-21T00:04:16.620Z,100587.61
2019-01-21T00:06:49.476Z,100589.91
2019-01-21T00:09:23.112Z,100585.63
2019-01-21T00:11:56.012Z,100587.14
2019-01-21T00:14:29.017Z,100586.97
2019-01-21T00:17:03.771Z,100586.36
2019-01-21T00:19:36.585Z,100589.38
2019-01-21T00:22:09.485Z,100584.69
2019-01-21T00:24:42.992Z,100588.31
2019-01-21T00:27:16.766Z,100587.69
2019-01-21T00:29:49.788Z,100583.90
2019-01-21T00:32:24.673Z,100576.86
2019-01-21T00:34:59.461Z,100573.20
2019-01-21T00:37:32.220Z,100575.95
2019-01-21T00:40:06.978Z,100575.44
2019-01-21T00:42:39.883Z,100576.22
2019-01-21T00:45:15.396Z,100574.73
2019-01-21T00:47:48.497Z,100586.92
2019-01-21T00:50:22.202Z,100599.09
2019-01-21T00:52:56.542Z,100599.58
2019-01-21T00:55:33.251Z,100597.53
2019-01-21T00:58:06.205Z,100597.39
2019-01-21T01:00:39.628Z,100604.62
2019-01-21T01:03:13.816Z,100603.99
2019-01-21T01:05:49.819Z,100608.98
2019-01-21T01:08:23.049Z,100609.37
2019-01-21T01:10:56.040Z,100614.52
2019-01-21T01:13:28.988Z,100614.36
2019-01-21T01:16:02.990Z,100616.09
2019-01-21T01:18:36.423Z,100609.32
2019-01-21T01:21:10.836Z,100611.58
2019-01-21T01:23:44.018Z,100607.63
2019-01-21T01:26:18.070Z,100609.33
2019-01-21T01:28:51.006Z,100612.25
2019-01-21T01:31:25.391Z,100609.23
2019-01-21T01:33:58.216Z,100609.54
2019-01-21T01:36:31.220Z,100614.91
2019-01-21T01:39:06.702Z,100610.32
2019-01-21T01:41:39.676Z,100614.02
2019-01-21T01:44:12.642Z,100614.56
2019-01-21T01:46:46.853Z,100610.45
2019-01-21T01:49:19.922Z,100610.52
2019-01-21T01:51:52.931Z,100611.66
2019-01-21T01:54:26.360Z,100609.73
2019-01-21T01:56:59.543Z,100613.61
2019-01-21T01:59:32.540Z,100620.18
2019-01-21T02:02:07.036Z,100616.25
2019-01-21T02:04:40.004Z,100619.63
2019-01-21T02:07:14.093Z,100629.89
2019-01-21T02:09:49.607Z,100634.16
2019-01-21T02:12:22.541Z,100627.83
2019-01-21T02:14:55.395Z,100630.64
2019-01-21T02:17:28.927Z,100634.55
2019-01-21T02:20:03.528Z,100638.73
2019-01-21T02:22:44.128Z,100633.87
2019-01-21T02:25:17.725Z,100643.42
2019-01-21T02:28:42.986Z,100637.98
2019-01-21T02:32:23.965Z,100642.38
2019-01-21T02:35:36.849Z,100642.80
2019-01-21T02:39:09.705Z,100639.14
2019-01-21T02:42:01.248Z,100637.02
2019-01-21T02:45:08.774Z,100638.84
2019-01-21T02:48:38.887Z,100637.05
2019-01-21T02:51:54.923Z,100638.94
2019-01-21T02:54:59.179Z,100639.81
2019-01-21T02:58:24.898Z,100638.00
2019-01-21T03:02:04.918Z,100633.94
2019-01-21T03:05:38.340Z,100637.83
2019-01-21T03:09:11.950Z,100648.56
2019-01-21T03:12:11.805Z,100648.19
2019-01-21T03:15:51.720Z,100638.24
2019-01-21T03:19:42.427Z,100639.33
2019-01-21T03:22:56.054Z,100640.58
2019-01-21T03:26:28.327Z,100635.19
2019-01-21T03:29:40.728Z,100632.78
2019-01-21T03:32:50.154Z,100631.30
2019-01-21T03:36:06.066Z,100627.80
2019-01-21T03:39:26.248Z,100631.73
2019-01-21T03:42:30.610Z,100640.84
2019-01-21T03:46:01.572Z,100635.66
2019-01-21T03:48:47.661Z,100627.58
2019-01-21T03:52:19.788Z,100632.52
2019-01-21T03:55:05.591Z,100624.25
2019-01-21T03:58:27.716Z,100626.36
2019-01-21T04:01:57.526Z,100628.23
2019-01-21T04:05:21.769Z,100619.19
2019-01-21T04:08:36.715Z,100623.86
2019-01-21T04:12:03.161Z,100629.45
2019-01-21T04:15:30.625Z,100632.72
2019-01-21T04:18:54.735Z,100642.55
2019-01-21T04:22:08.358Z,100638.71
2019-01-21T04:25:24.500Z,100632.08
2019-01-21T04:28:24.398Z,100626.11
2019-01-21T04:32:00.132Z,100626.39
2019-01-21T04:35:33.476Z,100623.47
2019-01-21T04:38:56.586Z,100630.45
2019-01-21T04:41:55.457Z,100642.03
2019-01-21T04:45:21.262Z,100637.91
2019-01-21T04:48:35.813Z,100641.20
2019-01-21T04:52:22.664Z,100643.24
2019-01-21T04:56:02.584Z,100635.28
2019-01-21T04:59:35.645Z,100641.38
2019-01-21T05:02:52.653Z,100634.98
2019-01-21T05:06:17.015Z,100634.52
2019-01-21T05:09:43.553Z,100639.86
2019-01-21T05:13:06.608Z,100633.87
2019-01-21T05:16:23.460Z,100634.07
2019-01-21T05:19:57.644Z,100630.70
2019-01-21T05:23:17.669Z,100639.08
2019-01-21T05:26:28.282Z,100633.31
2019-01-21T05:30:14.890Z,100631.91
2019-01-21T05:33:31.237Z,100628.44
2019-01-21T05:37:07.381Z,100626.43
2019-01-21T05:40:36.630Z,100628.61
2019-01-21T05:44:00.427Z,100634.30
2019-01-21T05:47:46.670Z,100633.91
2019-01-21T05:50:52.567Z,100628.48
2019-01-21T05:54:11.588Z,100631.97
2019-01-21T05:57:29.440Z,100629.91
2019-01-21T06:01:05.973Z,100631.96
2019-01-21T06:04:54.469Z,100637.67
2019-01-21T06:08:39.175Z,100636.45
2019-01-21T06:12:05.394Z,100637.08
2019-01-21T06:15:28.380Z,100643.83
2019-01-21T06:18:42.545Z,100636.32
2019-01-21T06:22:01.577Z,100640.98
2019-01-21T06:25:20.187Z,100641.05
2019-01-21T06:29:07.470Z,100643.34
2019-01-21T06:32:16.500Z,100648.59
2019-01-21T06:35:28.431Z,100653.85
2019-01-21T06:38:54.769Z,100653.89
2019-01-21T06:42:08.178Z,100654.94
2019-01-21T06:45:51.227Z,100649.98
2019-01-21T06:49:11.561Z,100653.64
2019-01-21T06:52:10.201Z,100657.23
2019-01-21T06:55:35.474Z,100658.80
2019-01-21T06:58:58.763Z,100664.84
2019-01-21T07:02:32.948Z,100663.50
2019-01-21T07:05:36.725Z,100668.23
2019-01-21T07:08:58.122Z,100665.13
2019-01-21T07:12:13.368Z,100666.52
2019-01-21T07:15:46.899Z,100664.13
2019-01-21T07:19:20.509Z,100665.91
2019-01-21T07:22:37.673Z,100671.40
2019-01-21T07:26:03.239Z,100667.80
2019-01-21T07:29:25.888Z,100669.06
2019-01-21T07:33:17.702Z,100671.06
2019-01-21T07:36:43.768Z,100681.66
2019-01-21T07:40:14.222Z,100692.05
2019-01-21T07:43:58.633Z,100687.28
2019-01-21T07:47:40.477Z,100694.34
2019-01-21T07:50:59.868Z,100698.23
2019-01-21T07:54:31.413Z,100701.44
2019-01-21T07:58:02.320Z,100698.02
2019-01-21T08:01:19.348Z,100700.32
2019-01-21T08:04:55.440Z,100702.25
2019-01-21T08:08:17.168Z,100706.39
2019-01-21T08:11:58.234Z,100703.80
2019-01-21T08:15:00.715Z,100709.11
2019-01-21T08:18:20.045Z,100718.58
2019-01-21T08:21:39.703Z,100727.59
2019-01-21T08:24:55.556Z,100729.44
2019-01-21T08:28:01.607Z,100731.97
2019-01-21T08:31:12.731Z,100728.92
2019-01-21T08:34:45.055Z,100737.87
2019-01-21T08:37:53.105Z,100738.43
2019-01-21T08:41:42.027Z,100737.86
2019-01-21T08:45:13.921Z,100740.07
2019-01-21T08:48:40.109Z,100745.70
2019-01-21T08:52:05.093Z,100739.14
2019-01-21T08:55:42.254Z,100745.14
2019-01-21T08:59:09.416Z,100748.55
2019-01-21T09:02:24.415Z,100744.30
2019-01-21T09:05:52.277Z,100736.91
2019-01-21T09:09:26.512Z,100730.78
2019-01-21T09:12:24.397Z,100736.20
2019-01-21T09:15:30.718Z,100727.43
2019-01-21T09:18:35.847Z,100731.53
2019-01-21T09:22:04.698Z,100735.69
2019-01-21T09:25:19.117Z,100730.55
2019-01-21T09:28:58.902Z,100730.32
2019-01-21T09:32:24.583Z,100741.06
2019-01-21T09:35:46.038Z,100733.37
2019-01-21T09:39:20.711Z,100723.75
2019-01-21T09:42:21.370Z,100724.68
2019-01-21T09:45:58.829Z,100719.88
2019-01-21T09:48:30.533Z,100719.67
2019-01-21T09:51:08.021Z,100718.71
2019-01-21T09:53:48.098Z,100722.60
2019-01-21T09:56:23.389Z,100723.92
2019-01-21T09:59:03.948Z,100721.97
2019-01-21T10:01:37.694Z,100719.88
2019-01-21T10:04:25.473Z,100721.66
2019-01-21T10:07:32.288Z,100718.85
2019-01-21T10:10:44.306Z,100721.84
2019-01-21T10:13:55.624Z,100727.47
2019-01-21T10:17:10.289Z,100727.69
2019-01-21T10:20:28.844Z,100717.36
2019-01-21T10:24:05.323Z,100712.09
2019-01-21T10:27:34.879Z,100706.19
2019-01-21T10:30:50.473Z,100705.84
2019-01-21T10:34:15.994Z,100702.93
2019-01-21T10:38:19.170Z,100690.73
2019-01-21T10:41:29.611Z,100686.09
2019-01-21T10:45:14.063Z,100687.98
2019-01-21T10:48:29.747Z,100680.58
2019-01-21T10:51:35.158Z,100685.26
2019-01-21T10:54:58.963Z,100683.51
2019-01-21T10:58:14.865Z,100672.38
2019-01-21T11:01:25.755Z,100672.61
2019-01-21T11:04:37.184Z,100667.56
2019-01-21T11:08:02.194Z,100670.09
2019-01-21T11:11:15.511Z,100664.46
2019-01-21T11:14:25.132Z,100661.38
2019-01-21T11:17:56.315Z,100646.95
2019-01-21T11:21:10.486Z,100639.28
2019-01-21T11:25:16.597Z,100636.10
2019-01-21T11:28:22.368Z,100636.69
2019-01-21T11:31:44.741Z,100630.27
2019-01-21T11:35:01.243Z,100628.66
2019-01-21T11:38:22.994Z,100629.20
2019-01-21T11:41:57.668Z,100627.49
2019-01-21T11:45:18.625Z,100621.97
2019-01-21T11:48:36.181Z,100616.30
2019-01-21T11:51:45.074Z,100613.13
2019-01-21T11:55:01.849Z,100609.14
2019-01-21T11:58:22.387Z,100607.77
2019-01-21T12:02:07.815Z,100602.91
2019-01-21T12:05:28.478Z,100602.31
2019-01-21T12:09:00.842Z,100593.69
2019-01-21T12:12:24.332Z,100592.84
2019-01-21T12:15:45.728Z,100588.14
2019-01-21T12:19:02.064Z,100574.75
2019-01-21T12:22:36.167Z,100573.56
2019-01-21T12:25:29.505Z,100582.94
2019-01-21T12:28:42.558Z,100585.92
2019-01-21T12:32:01.492Z,100581.44
2019-01-21T12:35:39.991Z,100578.35
2019-01-21T12:39:05.693Z,100575.37
2019-01-21T12:42:02.534Z,100577.20
2019-01-21T12:46:02.575Z,100575.69
2019-01-21T12:49:18.047Z,100570.97
2019-01-21T12:52:17.216Z,100565.63
2019-01-21T12:55:24.855Z,100558.61
2019-01-21T12:58:39.735Z,100549.19
2019-01-21T13:01:48.074Z,100545.00
2019-01-21T13:05:17.286Z,100532.51
2019-01-21T13:08:22.847Z,100525.19
2019-01-21T13:11:33.505Z,100523.83
2019-01-21T13:15:00.204Z,100517.87
2019-01-21T13:18:28.395Z,100519.26
2019-01-21T13:22:03.629Z,100510.96
2019-01-21T13:25:10.104Z,100520.73
2019-01-21T13:28:24.653Z,100520.28
2019-01-21T13:31:46.903Z,100524.39
2019-01-21T13:35:00.954Z,100518.26
2019-01-21T13:38:28.467Z,100516.48
2019-01-21T13:42:00.493Z,100516.44
2019-01-21T13:45:27.855Z,100509.31
2019-01-21T13:49:02.382Z,100503.29
2019-01-21T13:52:22.934Z,100502.76
2019-01-21T13:55:35.304Z,100493.15
2019-01-21T13:59:00.201Z,100490.83
2019-01-21T14:02:03.695Z,100489.59
2019-01-21T14:05:31.353Z,100483.10
2019-01-21T14:08:28.169Z,100475.14
2019-01-21T14:11:28.086Z,100474.00
2019-01-21T14:14:37.164Z,100466.73
2019-01-21T14:17:54.991Z,100466.71
2019-01-21T14:21:04.684Z,100462.88
2019-01-21T14:25:00.279Z,100459.27
2019-01-21T14:28:25.477Z,100450.89
2019-01-21T14:31:57.967Z,100437.35
2019-01-21T14:35:28.308Z,100437.44
2019-01-21T14:39:00.405Z,100431.35
2019-01-21T14:42:45.734Z,100429.33
2019-01-21T14:45:43.881Z,100424.36
2019-01-21T14:49:04.561Z,100425.23
2019-01-21T14:52:37.029Z,100423.05
2019-01-21T14:55:51.347Z,100422.30
2019-01-21T14:58:51.723Z,100416.72
2019-01-21T15:02:21.188Z,100414.83
2019-01-21T15:05:54.938Z,100422.20
2019-01-21T15:08:49.627Z,100427.20
2019-01-21T15:12:11.773Z,100425.31
2019-01-21T15:15:32.929Z,100422.23
2019-01-21T15:18:47.259Z,100421.92
2019-01-21T15:21:54.914Z,100418.62
2019-01-21T15:25:15.293Z,100423.74
2019-01-21T15:29:02.677Z,100423.22
2019-01-21T15:32:54.696Z,100420.71
2019-01-21T15:36:32.766Z,100414.59
2019-01-21T15:39:46.788Z,100418.48
2019-01-21T15:43:07.190Z,100417.47
2019-01-21T15:46:08.988Z,100417.09
2019-01-21T15:49:38.039Z,100421.42
2019-01-21T15:52:35.414Z,100425.97
2019-01-21T15:55:40.569Z,100432.81
2019-01-21T15:58:38.212Z,100438.55
2019-01-21T16:01:53.282Z,100442.41
2019-01-21T16:05:00.397Z,100439.39
2019-01-21T16:08:03.326Z,100438.66
2019-01-21T16:11:31.304Z,100437.93
2019-01-21T16:14:23.886Z,100425.86
2019-01-21T16:17:40.952Z,100423.48
2019-01-21T16:20:47.179Z,100436.09
2019-01-21T16:23:51.398Z,100436.37
2019-01-21T16:26:43.500Z,100437.37
2019-01-21T16:29:45.275Z,100432.88
2019-01-21T16:32:42.892Z,100419.68
2019-01-21T16:36:12.663Z,100409.97
2019-01-21T16:39:47.496Z,100409.95
2019-01-21T16:42:31.917Z,100407.96
2019-01-21T16:45:08.651Z,100411.45
2019-01-21T16:47:49.541Z,100405.56
2019-01-21T16:50:25.837Z,100402.56
2019-01-21T16:53:16.455Z,100405.92
2019-01-21T16:55:51.197Z,100409.61
2019-01-21T16:58:24.968Z,100410.52
2019-01-21T17:01:00.914Z,100409.51
2019-01-21T17:03:34.245Z,100406.29
2019-01-21T17:06:07.424Z,100405.15
2019-01-21T17:08:42.301Z,100405.30
2019-01-21T17:11:18.068Z,100404.89
2019-01-21T17:13:52.964Z,100399.66
2019-01-21T17:16:29.112Z,100397.00
2019-01-21T17:19:03.220Z,100391.46
2019-01-21T17:21:37.613Z,100393.59
2019-01-21T17:24:13.232Z,100386.33
2019-01-21T17:26:51.009Z,100384.13
2019-01-21T17:29:24.354Z,100381.38
2019-01-21T17:31:58.199Z,100381.05
2019-01-21T17:34:32.782Z,100383.19
2019-01-21T17:37:07.910Z,100377.02
2019-01-21T17:39:41.776Z,100381.84
2019-01-21T17:42:15.701Z,100384.45
2019-01-21T17:44:52.790Z,100382.86
2019-01-21T17:47:31.379Z,100384.27
2019-01-21T17:50:05.359Z,100384.72
2019-01-21T17:52:42.672Z,100379.56
2019-01-21T17:55:20.374Z,100379.94
2019-01-21T17:57:53.339Z,100380.38
2019-01-21T18:00:31.603Z,100376.45
2019-01-21T18:03:06.396Z,100367.40
2019-01-21T18:05:43.809Z,100366.70
2019-01-21T18:08:17.571Z,100359.94
2019-01-21T18:10:51.965Z,100358.73
2019-01-21T18:13:27.486Z,100356.47
2019-01-21T18:16:04.643Z,100352.92
2019-01-21T18:18:38.653Z,100353.13
2019-01-21T18:21:12.635Z,100351.89
2019-01-21T18:23:51.841Z,100352.03
2019-01-21T18:26:25.096Z,100353.13
2019-01-21T18:29:00.691Z,100355.76
2019-01-21T18:31:36.417Z,100357.86
2019-01-21T18:34:12.581Z,100359.70
2019-01-21T18:36:50.777Z,100355.70
2019-01-21T18:39:27.887Z,100353.34
2019-01-21T18:42:02.540Z,100351.00
2019-01-21T18:44:36.523Z,100356.59
2019-01-21T18:47:13.539Z,100352.33
2019-01-21T18:49:47.957Z,100347.05
2019-01-21T18:52:21.240Z,100348.28
2019-01-21T18:54:56.757Z,100344.63
2019-01-21T18:57:34.043Z,100347.64
2019-01-21T19:00:17.594Z,100346.14
2019-01-21T19:02:51.466Z,100343.44
2019-01-21T19:05:25.955Z,100348.28
2019-01-21T19:08:05.489Z,100344.18
2019-01-21T19:10:47.436Z,100340.23
2019-01-21T19:13:26.249Z,100343.95
2019-01-21T19:15:59.823Z,100342.70
2019-01-21T19:18:35.915Z,100337.80
2019-01-21T19:21:09.026Z,100336.70
2019-01-21T19:23:46.357Z,100338.30
2019-01-21T19:26:21.291Z,100329.69
2019-01-21T19:28:55.696Z,100324.64
2019-01-21T19:31:29.480Z,100325.72
2019-01-21T19:34:06.728Z,100330.58
2019-01-21T19:36:43.117Z,100326.27
2019-01-21T19:39:23.612Z,100324.84
2019-01-21T19:41:59.338Z,100314.91
2019-01-21T19:44:34.365Z,100315.70
2019-01-21T19:47:07.970Z,100316.12
2019-01-21T19:49:42.322Z,100317.27
2019-01-21T19:52:15.804Z,100316.27
2019-01-21T19:54:51.130Z,100318.70
2019-01-21T19:57:27.196Z,100315.41
2019-01-21T20:00:04.547Z,100311.09
2019-01-21T20:02:38.635Z,100317.80
2019-01-21T20:05:12.675Z,100307.35
2019-01-21T20:07:47.347Z,100310.09
2019-01-21T20:10:21.689Z,100303.09
2019-01-21T20:13:05.747Z,100301.13
2019-01-21T20:15:40.734Z,100302.02
2019-01-21T20:18:13.799Z,100304.20
2019-01-21T20:20:58.437Z,100295.72
2019-01-21T20:23:37.598Z,100297.09
2019-01-21T20:26:10.735Z,100293.83
2019-01-21T20:28:45.836Z,100287.08
2019-01-21T20:31:20.016Z,100285.51
2019-01-21T20:33:53.829Z,100285.56
2019-01-21T20:36:28.322Z,100284.77
2019-01-21T20:39:05.163Z,100289.88
2019-01-21T20:41:38.298Z,100283.38
2019-01-21T20:44:16.053Z,100279.70
2019-01-21T20:46:49.041Z,100269.85
2019-01-21T20:49:26.680Z,100269.14
2019-01-21T20:52:01.744Z,100268.41
2019-01-21T20:54:35.468Z,100271.53
2019-01-21T20:57:10.398Z,100266.20
2019-01-21T20:59:44.228Z,100262.58
2019-01-21T21:02:18.560Z,100262.55
2019-01-21T21:04:51.685Z,100263.76
2019-01-21T21:07:27.988Z,100268.52
2019-01-21T21:10:05.728Z,100266.66
2019-01-21T21:12:46.218Z,100266.33
2019-01-21T21:15:27.140Z,100264.69
2019-01-21T21:18:00.993Z,100256.03
2019-01-21T21:20:36.598Z,100257.33
2019-01-21T21:23:10.847Z,100257.08
2019-01-21T21:25:46.997Z,100257.80
2019-01-21T21:28:33.095Z,100255.16
2019-01-21T21:31:07.421Z,100244.26
2019-01-21T21:33:41.400Z,100242.23
2019-01-21T21:36:14.785Z,100244.08
2019-01-21T21:38:49.009Z,100247.11
2019-01-21T21:41:22.393Z,100245.43
2019-01-21T21:43:56.065Z,100240.41
2019-01-21T21:46:29.892Z,100238.47
2019-01-21T21:49:04.240Z,100240.28
2019-01-21T21:51:37.541Z,100233.55
2019-01-21T21:54:10.516Z,100230.66
2019-01-21T21:56:46.450Z,100234.17
2019-01-21T21:59:20.344Z,100225.41
2019-01-21T22:01:56.582Z,100216.09
2019-01-21T22:04:35.127Z,100213.91
2019-01-21T22:07:14.257Z,100211.50
2019-01-21T22:09:49.182Z,100202.97
2019-01-21T22:12:22.215Z,100208.86
2019-01-21T22:14:57.806Z,100198.74
2019-01-21T22:17:30.771Z,100195.09
2019-01-21T22:20:06.036Z,100194.27
2019-01-21T22:22:41.882Z,100188.91
2019-01-21T22:25:17.566Z,100188.55
2019-01-21T22:27:51.100Z,100186.30
2019-01-21T22:30:30.060Z,100183.25
2019-01-21T22:33:05.405Z,100183.25
2019-01-21T22:35:40.065Z,100183.34
2019-01-21T22:38:14.153Z,100183.39
2019-01-21T22:40:49.234Z,100179.02
2019-01-21T22:43:23.403Z,100178.77
2019-01-21T22:45:57.682Z,100171.36
2019-01-21T22:48:31.201Z,100170.50
2019-01-21T22:51:04.604Z,100163.59
2019-01-21T22:53:39.055Z,100162.61
2019-01-21T22:56:12.363Z,100155.30
2019-01-21T22:58:45.200Z,100155.80
2019-01-21T23:01:31.950Z,100160.95
2019-01-21T23:04:05.119Z,100154.83
2019-01-21T23:06:39.076Z,100148.77
2019-01-21T23:09:13.068Z,100142.00
2019-01-21T23:11:54.050Z,100138.56
2019-01-21T23:14:29.166Z,100127.58
2019-01-21T23:17:03.572Z,100120.34
2019-01-21T23:19:36.579Z,100115.25
2019-01-21T23:22:10.542Z,100117.02
2019-01-21T23:24:43.992Z,100116.14
2019-01-21T23:27:16.904Z,100111.20
2019-01-21T23:29:51.934Z,100106.73
2019-01-21T23:32:25.689Z,100108.35
2019-01-21T23:34:58.580Z,100100.09
2019-01-21T23:37:33.037Z,100102.20
2019-01-21T23:40:09.292Z,100102.13
2019-01-21T23:42:42.229Z,100092.05
2019-01-21T23:45:16.701Z,100089.86
2019-01-21T23:47:51.063Z,100085.11
2019-01-21T23:50:24.174Z,100074.63
2019-01-21T23:52:57.887Z,100065.55
2019-01-21T23:55:31.273Z,100055.98
2019-01-21T23:58:04.256Z,100053.91
